Terminal Aerodrome Forecast
Issued by NWS

Home | Current Version | Previous Version | Graphics & Text | Print | Product List | Glossary On
Versions: 1 2 3 4 5 6 7 8 9 10 11 12 13 14 15 16 17 18 19 20 21 22 23 24 25 26 27 28 29 30 31 32 33 34 35 36 37
000
FTUS43 KLOT 051127
TAFDPA
TAF
KDPA 051127Z 0512/0612 03008KT 5SM -SHRA BR FEW010 SCT015 OVC070
     FM051400 07011KT P6SM FEW010 BKN050
     FM052000 07010KT P6SM VCSH SCT010 BKN050
     FM060100 08007KT P6SM FEW015 BKN050=

USA.gov is the U.S. government's official web portal to all federal, state and local government web resources and services.